sensor_id;sensor_type;location;lat;lon;timestamp;P1;durP1;ratioP1;P2;durP2;ratioP2
7707;SDS011;3896;48.758;8.888;2023-07-24T00:02:23;8.23;;;5.23;;
7707;SDS011;3896;48.758;8.888;2023-07-24T00:04:49;8.27;;;4.73;;
7707;SDS011;3896;48.758;8.888;2023-07-24T00:07:14;8.83;;;6.00;;
7707;SDS011;3896;48.758;8.888;2023-07-24T00:09:40;8.40;;;5.23;;
7707;SDS011;3896;48.758;8.888;2023-07-24T00:12:05;7.30;;;5.17;;
7707;SDS011;3896;48.758;8.888;2023-07-24T00:14:32;6.30;;;4.93;;
7707;SDS011;3896;48.758;8.888;2023-07-24T00:16:57;5.70;;;4.83;;
7707;SDS011;3896;48.758;8.888;2023-07-24T00:19:23;7.20;;;5.37;;
7707;SDS011;3896;48.758;8.888;2023-07-24T00:21:48;7.23;;;5.10;;
7707;SDS011;3896;48.758;8.888;2023-07-24T00:24:14;6.87;;;5.20;;
7707;SDS011;3896;48.758;8.888;2023-07-24T00:26:39;6.87;;;5.03;;
7707;SDS011;3896;48.758;8.888;2023-07-24T00:29:05;7.57;;;4.80;;
7707;SDS011;3896;48.758;8.888;2023-07-24T00:31:30;11.17;;;5.83;;
7707;SDS011;3896;48.758;8.888;2023-07-24T00:33:56;6.63;;;4.63;;
7707;SDS011;3896;48.758;8.888;2023-07-24T00:36:24;7.57;;;5.37;;
7707;SDS011;3896;48.758;8.888;2023-07-24T00:38:50;9.27;;;5.47;;
7707;SDS011;3896;48.758;8.888;2023-07-24T00:41:15;7.07;;;5.37;;
7707;SDS011;3896;48.758;8.888;2023-07-24T00:43:41;8.40;;;5.57;;
7707;SDS011;3896;48.758;8.888;2023-07-24T00:46:07;6.17;;;4.27;;
7707;SDS011;3896;48.758;8.888;2023-07-24T00:48:32;8.00;;;5.70;;
7707;SDS011;3896;48.758;8.888;2023-07-24T00:50:58;8.97;;;5.57;;
7707;SDS011;3896;48.758;8.888;2023-07-24T00:53:24;9.40;;;4.77;;
7707;SDS011;3896;48.758;8.888;2023-07-24T00:55:49;8.10;;;5.60;;
7707;SDS011;3896;48.758;8.888;2023-07-24T00:58:15;8.90;;;5.70;;
7707;SDS011;3896;48.758;8.888;2023-07-24T01:00:42;9.77;;;5.77;;
7707;SDS011;3896;48.758;8.888;2023-07-24T01:03:08;7.57;;;5.33;;
7707;SDS011;3896;48.758;8.888;2023-07-24T01:05:34;7.17;;;5.20;;
7707;SDS011;3896;48.758;8.888;2023-07-24T01:07:59;7.40;;;5.57;;
7707;SDS011;3896;48.758;8.888;2023-07-24T01:10:25;7.57;;;4.93;;
7707;SDS011;3896;48.758;8.888;2023-07-24T01:13:07;10.80;;;5.47;;
7707;SDS011;3896;48.758;8.888;2023-07-24T01:15:48;8.63;;;5.00;;
7707;SDS011;3896;48.758;8.888;2023-07-24T01:18:19;10.37;;;4.83;;
7707;SDS011;3896;48.758;8.888;2023-07-24T01:20:50;9.03;;;5.40;;
7707;SDS011;3896;48.758;8.888;2023-07-24T01:24:03;7.87;;;5.17;;
7707;SDS011;3896;48.758;8.888;2023-07-24T01:26:15;8.10;;;4.83;;
7707;SDS011;3896;48.758;8.888;2023-07-24T01:28:42;7.03;;;5.27;;
7707;SDS011;3896;48.758;8.888;2023-07-24T01:31:07;7.93;;;4.57;;
7707;SDS011;3896;48.758;8.888;2023-07-24T01:33:33;10.00;;;5.53;;
7707;SDS011;3896;48.758;8.888;2023-07-24T01:36:00;9.20;;;5.90;;
7707;SDS011;3896;48.758;8.888;2023-07-24T01:38:28;8.83;;;5.13;;
7707;SDS011;3896;48.758;8.888;2023-07-24T01:40:56;8.50;;;5.20;;
7707;SDS011;3896;48.758;8.888;2023-07-24T01:43:22;8.50;;;5.13;;
7707;SDS011;3896;48.758;8.888;2023-07-24T01:45:49;6.27;;;4.40;;
7707;SDS011;3896;48.758;8.888;2023-07-24T01:48:15;6.77;;;4.53;;
7707;SDS011;3896;48.758;8.888;2023-07-24T01:50:40;7.97;;;4.60;;
7707;SDS011;3896;48.758;8.888;2023-07-24T01:53:06;7.73;;;4.57;;
7707;SDS011;3896;48.758;8.888;2023-07-24T01:55:31;8.10;;;5.73;;
7707;SDS011;3896;48.758;8.888;2023-07-24T01:57:57;8.50;;;5.07;;
7707;SDS011;3896;48.758;8.888;2023-07-24T02:00:22;7.07;;;5.13;;
7707;SDS011;3896;48.758;8.888;2023-07-24T02:02:48;7.90;;;5.23;;
7707;SDS011;3896;48.758;8.888;2023-07-24T02:05:13;9.30;;;5.87;;
7707;SDS011;3896;48.758;8.888;2023-07-24T02:07:39;10.53;;;5.93;;
7707;SDS011;3896;48.758;8.888;2023-07-24T02:12:35;10.73;;;5.70;;
7707;SDS011;3896;48.758;8.888;2023-07-24T02:15:00;6.50;;;5.20;;
7707;SDS011;3896;48.758;8.888;2023-07-24T02:17:26;9.80;;;6.17;;
7707;SDS011;3896;48.758;8.888;2023-07-24T02:19:51;7.30;;;5.40;;
7707;SDS011;3896;48.758;8.888;2023-07-24T02:22:17;8.83;;;5.50;;
7707;SDS011;3896;48.758;8.888;2023-07-24T02:24:42;7.53;;;5.20;;
7707;SDS011;3896;48.758;8.888;2023-07-24T02:27:11;6.60;;;4.90;;
7707;SDS011;3896;48.758;8.888;2023-07-24T02:29:37;8.97;;;6.10;;
7707;SDS011;3896;48.758;8.888;2023-07-24T02:32:03;6.97;;;4.83;;
7707;SDS011;3896;48.758;8.888;2023-07-24T02:34:29;9.47;;;5.50;;
7707;SDS011;3896;48.758;8.888;2023-07-24T02:36:54;7.47;;;5.20;;
7707;SDS011;3896;48.758;8.888;2023-07-24T02:39:20;9.23;;;5.50;;
7707;SDS011;3896;48.758;8.888;2023-07-24T02:41:49;10.40;;;6.00;;
7707;SDS011;3896;48.758;8.888;2023-07-24T02:44:15;8.73;;;5.27;;
7707;SDS011;3896;48.758;8.888;2023-07-24T02:46:40;9.67;;;5.80;;
7707;SDS011;3896;48.758;8.888;2023-07-24T02:49:06;9.23;;;5.77;;
7707;SDS011;3896;48.758;8.888;2023-07-24T02:51:32;6.60;;;4.57;;
7707;SDS011;3896;48.758;8.888;2023-07-24T02:53:58;9.67;;;6.13;;
7707;SDS011;3896;48.758;8.888;2023-07-24T02:56:23;9.17;;;6.00;;
7707;SDS011;3896;48.758;8.888;2023-07-24T02:58:49;8.33;;;5.27;;
7707;SDS011;3896;48.758;8.888;2023-07-24T03:01:14;11.33;;;5.77;;
7707;SDS011;3896;48.758;8.888;2023-07-24T03:03:40;7.70;;;5.80;;
7707;SDS011;3896;48.758;8.888;2023-07-24T03:06:06;8.73;;;5.80;;
7707;SDS011;3896;48.758;8.888;2023-07-24T03:08:32;8.43;;;5.50;;
7707;SDS011;3896;48.758;8.888;2023-07-24T03:10:58;7.93;;;5.83;;
7707;SDS011;3896;48.758;8.888;2023-07-24T03:13:24;8.17;;;5.27;;
7707;SDS011;3896;48.758;8.888;2023-07-24T03:15:53;7.83;;;5.20;;
7707;SDS011;3896;48.758;8.888;2023-07-24T03:18:20;7.73;;;5.73;;
7707;SDS011;3896;48.758;8.888;2023-07-24T03:20:46;8.53;;;5.80;;
7707;SDS011;3896;48.758;8.888;2023-07-24T03:23:12;8.97;;;5.37;;
7707;SDS011;3896;48.758;8.888;2023-07-24T03:25:37;10.60;;;5.80;;
7707;SDS011;3896;48.758;8.888;2023-07-24T03:28:03;7.50;;;5.50;;
7707;SDS011;3896;48.758;8.888;2023-07-24T03:30:29;8.80;;;5.80;;
7707;SDS011;3896;48.758;8.888;2023-07-24T03:32:54;9.83;;;5.70;;
7707;SDS011;3896;48.758;8.888;2023-07-24T03:35:20;9.53;;;4.97;;
7707;SDS011;3896;48.758;8.888;2023-07-24T03:37:45;7.57;;;5.07;;
7707;SDS011;3896;48.758;8.888;2023-07-24T03:40:11;8.70;;;5.13;;
7707;SDS011;3896;48.758;8.888;2023-07-24T03:42:37;7.87;;;5.40;;
7707;SDS011;3896;48.758;8.888;2023-07-24T03:45:03;6.20;;;5.03;;
7707;SDS011;3896;48.758;8.888;2023-07-24T03:47:29;9.23;;;5.53;;
7707;SDS011;3896;48.758;8.888;2023-07-24T03:49:54;8.73;;;5.87;;
7707;SDS011;3896;48.758;8.888;2023-07-24T03:52:20;9.07;;;5.30;;
7707;SDS011;3896;48.758;8.888;2023-07-24T03:54:46;6.43;;;5.00;;
7707;SDS011;3896;48.758;8.888;2023-07-24T03:57:11;11.03;;;6.53;;
7707;SDS011;3896;48.758;8.888;2023-07-24T03:59:37;5.80;;;4.70;;
7707;SDS011;3896;48.758;8.888;2023-07-24T04:02:02;9.57;;;5.43;;
7707;SDS011;3896;48.758;8.888;2023-07-24T04:04:28;7.53;;;4.97;;
7707;SDS011;3896;48.758;8.888;2023-07-24T04:06:54;9.43;;;5.27;;
7707;SDS011;3896;48.758;8.888;2023-07-24T04:09:19;7.23;;;5.13;;
7707;SDS011;3896;48.758;8.888;2023-07-24T04:11:45;8.70;;;5.63;;
7707;SDS011;3896;48.758;8.888;2023-07-24T04:14:10;12.97;;;5.57;;
7707;SDS011;3896;48.758;8.888;2023-07-24T04:16:36;9.43;;;4.97;;
7707;SDS011;3896;48.758;8.888;2023-07-24T04:19:02;7.60;;;4.97;;
7707;SDS011;3896;48.758;8.888;2023-07-24T04:21:27;8.13;;;5.17;;
7707;SDS011;3896;48.758;8.888;2023-07-24T04:23:53;8.37;;;5.17;;
7707;SDS011;3896;48.758;8.888;2023-07-24T04:26:19;7.13;;;4.90;;
7707;SDS011;3896;48.758;8.888;2023-07-24T04:28:44;7.97;;;4.73;;
7707;SDS011;3896;48.758;8.888;2023-07-24T04:31:10;9.00;;;5.13;;
7707;SDS011;3896;48.758;8.888;2023-07-24T04:33:35;7.23;;;5.37;;
7707;SDS011;3896;48.758;8.888;2023-07-24T04:36:01;9.17;;;5.27;;
7707;SDS011;3896;48.758;8.888;2023-07-24T04:38:26;8.90;;;5.63;;
7707;SDS011;3896;48.758;8.888;2023-07-24T04:40:52;7.80;;;5.50;;
7707;SDS011;3896;48.758;8.888;2023-07-24T04:43:18;8.07;;;5.07;;
7707;SDS011;3896;48.758;8.888;2023-07-24T04:45:43;8.40;;;5.40;;
7707;SDS011;3896;48.758;8.888;2023-07-24T04:48:09;6.50;;;5.03;;
7707;SDS011;3896;48.758;8.888;2023-07-24T04:50:34;8.57;;;5.47;;
7707;SDS011;3896;48.758;8.888;2023-07-24T04:53:00;6.83;;;4.97;;
7707;SDS011;3896;48.758;8.888;2023-07-24T04:55:25;6.97;;;4.90;;
7707;SDS011;3896;48.758;8.888;2023-07-24T04:57:51;8.13;;;5.70;;
7707;SDS011;3896;48.758;8.888;2023-07-24T05:00:16;8.20;;;5.63;;
7707;SDS011;3896;48.758;8.888;2023-07-24T05:02:42;7.43;;;5.07;;
7707;SDS011;3896;48.758;8.888;2023-07-24T05:05:08;7.30;;;5.20;;
7707;SDS011;3896;48.758;8.888;2023-07-24T05:07:34;7.67;;;5.87;;
7707;SDS011;3896;48.758;8.888;2023-07-24T05:09:59;7.33;;;5.10;;
7707;SDS011;3896;48.758;8.888;2023-07-24T05:12:25;10.00;;;5.90;;
7707;SDS011;3896;48.758;8.888;2023-07-24T05:14:51;6.67;;;4.80;;
7707;SDS011;3896;48.758;8.888;2023-07-24T05:17:16;9.13;;;5.70;;
7707;SDS011;3896;48.758;8.888;2023-07-24T05:19:42;9.27;;;6.30;;
7707;SDS011;3896;48.758;8.888;2023-07-24T05:22:07;8.57;;;5.57;;
7707;SDS011;3896;48.758;8.888;2023-07-24T05:24:35;11.13;;;6.63;;
7707;SDS011;3896;48.758;8.888;2023-07-24T05:27:01;7.97;;;5.73;;
7707;SDS011;3896;48.758;8.888;2023-07-24T05:29:27;8.20;;;6.17;;
7707;SDS011;3896;48.758;8.888;2023-07-24T05:31:53;8.80;;;5.43;;
7707;SDS011;3896;48.758;8.888;2023-07-24T05:34:18;9.60;;;6.20;;
7707;SDS011;3896;48.758;8.888;2023-07-24T05:36:44;9.10;;;6.37;;
7707;SDS011;3896;48.758;8.888;2023-07-24T05:39:09;8.63;;;5.53;;
7707;SDS011;3896;48.758;8.888;2023-07-24T05:41:35;7.37;;;5.90;;
7707;SDS011;3896;48.758;8.888;2023-07-24T05:44:00;7.93;;;5.50;;
7707;SDS011;3896;48.758;8.888;2023-07-24T05:46:26;10.17;;;5.77;;
7707;SDS011;3896;48.758;8.888;2023-07-24T05:48:51;8.20;;;5.93;;
7707;SDS011;3896;48.758;8.888;2023-07-24T05:51:17;7.70;;;5.67;;
7707;SDS011;3896;48.758;8.888;2023-07-24T05:53:43;8.67;;;5.60;;
7707;SDS011;3896;48.758;8.888;2023-07-24T05:56:08;9.10;;;6.13;;
7707;SDS011;3896;48.758;8.888;2023-07-24T05:58:34;7.37;;;4.87;;
7707;SDS011;3896;48.758;8.888;2023-07-24T06:01:00;10.03;;;5.63;;
7707;SDS011;3896;48.758;8.888;2023-07-24T06:03:25;11.03;;;5.93;;
7707;SDS011;3896;48.758;8.888;2023-07-24T06:05:51;7.93;;;5.53;;
7707;SDS011;3896;48.758;8.888;2023-07-24T06:08:18;9.50;;;5.90;;
7707;SDS011;3896;48.758;8.888;2023-07-24T06:10:46;8.27;;;5.67;;
7707;SDS011;3896;48.758;8.888;2023-07-24T06:13:15;8.40;;;6.47;;
7707;SDS011;3896;48.758;8.888;2023-07-24T06:15:41;10.30;;;5.70;;
7707;SDS011;3896;48.758;8.888;2023-07-24T06:18:08;9.13;;;5.80;;
7707;SDS011;3896;48.758;8.888;2023-07-24T06:20:34;8.17;;;5.37;;
7707;SDS011;3896;48.758;8.888;2023-07-24T06:23:00;6.93;;;5.20;;
7707;SDS011;3896;48.758;8.888;2023-07-24T06:25:25;8.07;;;5.47;;
7707;SDS011;3896;48.758;8.888;2023-07-24T06:27:51;8.43;;;5.80;;
7707;SDS011;3896;48.758;8.888;2023-07-24T06:30:16;7.73;;;5.73;;
7707;SDS011;3896;48.758;8.888;2023-07-24T06:32:42;8.83;;;6.07;;
7707;SDS011;3896;48.758;8.888;2023-07-24T06:35:08;9.80;;;6.30;;
7707;SDS011;3896;48.758;8.888;2023-07-24T06:37:33;10.03;;;6.70;;
7707;SDS011;3896;48.758;8.888;2023-07-24T06:39:59;9.53;;;6.17;;
7707;SDS011;3896;48.758;8.888;2023-07-24T06:42:24;8.60;;;5.20;;
7707;SDS011;3896;48.758;8.888;2023-07-24T06:44:50;8.67;;;5.83;;
7707;SDS011;3896;48.758;8.888;2023-07-24T06:47:15;8.67;;;5.63;;
7707;SDS011;3896;48.758;8.888;2023-07-24T06:49:41;9.90;;;5.77;;
7707;SDS011;3896;48.758;8.888;2023-07-24T06:52:06;9.00;;;6.17;;
7707;SDS011;3896;48.758;8.888;2023-07-24T06:54:32;8.13;;;5.40;;
7707;SDS011;3896;48.758;8.888;2023-07-24T06:56:58;9.07;;;6.40;;
7707;SDS011;3896;48.758;8.888;2023-07-24T06:59:23;7.60;;;5.50;;
7707;SDS011;3896;48.758;8.888;2023-07-24T07:01:49;5.53;;;4.40;;
7707;SDS011;3896;48.758;8.888;2023-07-24T07:04:14;9.87;;;6.30;;
7707;SDS011;3896;48.758;8.888;2023-07-24T07:06:41;8.30;;;6.20;;
7707;SDS011;3896;48.758;8.888;2023-07-24T07:09:07;8.20;;;6.17;;
7707;SDS011;3896;48.758;8.888;2023-07-24T07:11:32;10.57;;;5.87;;
7707;SDS011;3896;48.758;8.888;2023-07-24T07:13:58;8.40;;;5.60;;
7707;SDS011;3896;48.758;8.888;2023-07-24T07:16:23;10.37;;;6.03;;
7707;SDS011;3896;48.758;8.888;2023-07-24T07:18:49;9.90;;;6.10;;
7707;SDS011;3896;48.758;8.888;2023-07-24T07:21:14;10.93;;;6.80;;
7707;SDS011;3896;48.758;8.888;2023-07-24T07:23:40;8.60;;;5.70;;
7707;SDS011;3896;48.758;8.888;2023-07-24T07:26:05;8.87;;;5.87;;
7707;SDS011;3896;48.758;8.888;2023-07-24T07:28:31;10.70;;;7.10;;
7707;SDS011;3896;48.758;8.888;2023-07-24T07:30:56;9.87;;;6.40;;
7707;SDS011;3896;48.758;8.888;2023-07-24T07:33:22;11.90;;;6.87;;
7707;SDS011;3896;48.758;8.888;2023-07-24T07:35:48;12.00;;;6.70;;
7707;SDS011;3896;48.758;8.888;2023-07-24T07:38:14;9.60;;;6.33;;
7707;SDS011;3896;48.758;8.888;2023-07-24T07:40:39;10.57;;;6.80;;
7707;SDS011;3896;48.758;8.888;2023-07-24T07:43:05;10.77;;;6.73;;
7707;SDS011;3896;48.758;8.888;2023-07-24T07:45:31;6.87;;;5.13;;
7707;SDS011;3896;48.758;8.888;2023-07-24T07:47:56;10.43;;;6.77;;
7707;SDS011;3896;48.758;8.888;2023-07-24T07:50:22;8.23;;;5.70;;
7707;SDS011;3896;48.758;8.888;2023-07-24T07:52:51;8.37;;;6.13;;
7707;SDS011;3896;48.758;8.888;2023-07-24T07:55:20;8.00;;;5.50;;
7707;SDS011;3896;48.758;8.888;2023-07-24T07:57:46;8.80;;;5.90;;
7707;SDS011;3896;48.758;8.888;2023-07-24T08:00:11;12.73;;;6.87;;
7707;SDS011;3896;48.758;8.888;2023-07-24T08:02:37;9.27;;;5.57;;
7707;SDS011;3896;48.758;8.888;2023-07-24T08:05:05;9.47;;;6.00;;
7707;SDS011;3896;48.758;8.888;2023-07-24T08:07:34;9.50;;;5.93;;
7707;SDS011;3896;48.758;8.888;2023-07-24T08:12:33;9.47;;;5.90;;
7707;SDS011;3896;48.758;8.888;2023-07-24T08:14:58;8.10;;;5.83;;
7707;SDS011;3896;48.758;8.888;2023-07-24T08:19:52;9.13;;;5.40;;
7707;SDS011;3896;48.758;8.888;2023-07-24T08:22:17;7.63;;;5.83;;
7707;SDS011;3896;48.758;8.888;2023-07-24T08:24:44;7.80;;;5.43;;
7707;SDS011;3896;48.758;8.888;2023-07-24T08:27:10;8.13;;;4.70;;
7707;SDS011;3896;48.758;8.888;2023-07-24T08:29:35;10.83;;;5.20;;
7707;SDS011;3896;48.758;8.888;2023-07-24T08:32:03;8.27;;;5.10;;
7707;SDS011;3896;48.758;8.888;2023-07-24T08:34:29;7.10;;;4.97;;
7707;SDS011;3896;48.758;8.888;2023-07-24T08:36:54;7.20;;;5.37;;
7707;SDS011;3896;48.758;8.888;2023-07-24T08:39:20;8.20;;;5.17;;
7707;SDS011;3896;48.758;8.888;2023-07-24T08:41:45;7.20;;;5.60;;
7707;SDS011;3896;48.758;8.888;2023-07-24T08:44:11;8.27;;;6.07;;
7707;SDS011;3896;48.758;8.888;2023-07-24T08:46:37;8.43;;;5.70;;
7707;SDS011;3896;48.758;8.888;2023-07-24T08:49:06;8.57;;;5.00;;
7707;SDS011;3896;48.758;8.888;2023-07-24T08:51:41;8.07;;;5.97;;
7707;SDS011;3896;48.758;8.888;2023-07-24T08:54:07;7.10;;;5.33;;
7707;SDS011;3896;48.758;8.888;2023-07-24T08:56:33;6.63;;;5.00;;
7707;SDS011;3896;48.758;8.888;2023-07-24T08:59:01;7.67;;;5.40;;
7707;SDS011;3896;48.758;8.888;2023-07-24T09:01:26;7.63;;;4.70;;
7707;SDS011;3896;48.758;8.888;2023-07-24T09:03:52;7.73;;;5.60;;
7707;SDS011;3896;48.758;8.888;2023-07-24T09:06:17;7.17;;;5.10;;
7707;SDS011;3896;48.758;8.888;2023-07-24T09:08:43;7.93;;;5.30;;
7707;SDS011;3896;48.758;8.888;2023-07-24T09:11:09;5.20;;;4.30;;
7707;SDS011;3896;48.758;8.888;2023-07-24T09:13:40;5.50;;;4.70;;
7707;SDS011;3896;48.758;8.888;2023-07-24T09:16:07;5.07;;;4.40;;
7707;SDS011;3896;48.758;8.888;2023-07-24T09:18:40;6.13;;;4.87;;
7707;SDS011;3896;48.758;8.888;2023-07-24T09:21:07;8.00;;;5.37;;
7707;SDS011;3896;48.758;8.888;2023-07-24T09:23:33;5.97;;;4.70;;
7707;SDS011;3896;48.758;8.888;2023-07-24T09:25:58;8.20;;;4.87;;
7707;SDS011;3896;48.758;8.888;2023-07-24T09:28:29;9.20;;;5.47;;
7707;SDS011;3896;48.758;8.888;2023-07-24T09:30:56;6.40;;;4.50;;
7707;SDS011;3896;48.758;8.888;2023-07-24T09:33:41;6.87;;;4.87;;
7707;SDS011;3896;48.758;8.888;2023-07-24T09:36:08;6.07;;;4.37;;
7707;SDS011;3896;48.758;8.888;2023-07-24T09:38:35;6.27;;;4.80;;
7707;SDS011;3896;48.758;8.888;2023-07-24T09:41:02;6.20;;;4.83;;
7707;SDS011;3896;48.758;8.888;2023-07-24T09:43:29;5.80;;;4.73;;
7707;SDS011;3896;48.758;8.888;2023-07-24T09:45:55;5.07;;;3.93;;
7707;SDS011;3896;48.758;8.888;2023-07-24T09:48:23;9.10;;;4.60;;
7707;SDS011;3896;48.758;8.888;2023-07-24T09:50:54;5.40;;;3.87;;
7707;SDS011;3896;48.758;8.888;2023-07-24T09:56:18;5.87;;;4.50;;
7707;SDS011;3896;48.758;8.888;2023-07-24T09:58:45;9.03;;;4.97;;
7707;SDS011;3896;48.758;8.888;2023-07-24T10:01:11;7.77;;;4.87;;
7707;SDS011;3896;48.758;8.888;2023-07-24T10:03:40;7.07;;;4.63;;
7707;SDS011;3896;48.758;8.888;2023-07-24T10:06:11;8.13;;;4.60;;
7707;SDS011;3896;48.758;8.888;2023-07-24T10:08:36;5.40;;;4.37;;
7707;SDS011;3896;48.758;8.888;2023-07-24T10:11:04;6.20;;;4.53;;
7707;SDS011;3896;48.758;8.888;2023-07-24T10:13:29;9.77;;;4.50;;
7707;SDS011;3896;48.758;8.888;2023-07-24T10:15:56;8.17;;;5.47;;
7707;SDS011;3896;48.758;8.888;2023-07-24T10:18:26;5.00;;;4.20;;
7707;SDS011;3896;48.758;8.888;2023-07-24T10:21:08;5.50;;;4.47;;
7707;SDS011;3896;48.758;8.888;2023-07-24T10:23:45;6.10;;;4.67;;
7707;SDS011;3896;48.758;8.888;2023-07-24T10:26:13;7.37;;;5.30;;
7707;SDS011;3896;48.758;8.888;2023-07-24T10:28:40;6.07;;;4.63;;
7707;SDS011;3896;48.758;8.888;2023-07-24T10:31:07;5.70;;;4.27;;
7707;SDS011;3896;48.758;8.888;2023-07-24T10:33:44;5.33;;;4.20;;
7707;SDS011;3896;48.758;8.888;2023-07-24T10:36:10;7.67;;;5.13;;
7707;SDS011;3896;48.758;8.888;2023-07-24T10:38:42;7.40;;;4.90;;
7707;SDS011;3896;48.758;8.888;2023-07-24T10:41:08;6.63;;;5.03;;
7707;SDS011;3896;48.758;8.888;2023-07-24T10:43:45;7.60;;;5.03;;
7707;SDS011;3896;48.758;8.888;2023-07-24T10:46:13;8.63;;;4.63;;
7707;SDS011;3896;48.758;8.888;2023-07-24T10:48:43;6.10;;;5.10;;
7707;SDS011;3896;48.758;8.888;2023-07-24T10:51:09;7.87;;;5.00;;
7707;SDS011;3896;48.758;8.888;2023-07-24T10:53:36;7.27;;;5.37;;
7707;SDS011;3896;48.758;8.888;2023-07-24T10:56:02;7.53;;;5.50;;
7707;SDS011;3896;48.758;8.888;2023-07-24T10:58:32;5.87;;;4.47;;
7707;SDS011;3896;48.758;8.888;2023-07-24T11:01:00;9.97;;;5.47;;
7707;SDS011;3896;48.758;8.888;2023-07-24T11:03:29;8.83;;;5.10;;
7707;SDS011;3896;48.758;8.888;2023-07-24T11:05:56;6.30;;;4.77;;
7707;SDS011;3896;48.758;8.888;2023-07-24T11:08:23;7.47;;;5.20;;
7707;SDS011;3896;48.758;8.888;2023-07-24T11:13:20;6.77;;;4.80;;
7707;SDS011;3896;48.758;8.888;2023-07-24T11:15:50;5.73;;;4.43;;
7707;SDS011;3896;48.758;8.888;2023-07-24T11:18:17;6.83;;;4.63;;
7707;SDS011;3896;48.758;8.888;2023-07-24T11:20:48;9.10;;;5.07;;
7707;SDS011;3896;48.758;8.888;2023-07-24T11:23:18;8.60;;;4.83;;
7707;SDS011;3896;48.758;8.888;2023-07-24T11:25:45;7.57;;;5.30;;
7707;SDS011;3896;48.758;8.888;2023-07-24T11:28:12;5.83;;;4.47;;
7707;SDS011;3896;48.758;8.888;2023-07-24T11:30:38;7.63;;;4.80;;
7707;SDS011;3896;48.758;8.888;2023-07-24T11:33:05;7.77;;;5.27;;
7707;SDS011;3896;48.758;8.888;2023-07-24T11:35:32;6.63;;;4.40;;
7707;SDS011;3896;48.758;8.888;2023-07-24T11:38:00;8.10;;;4.80;;
7707;SDS011;3896;48.758;8.888;2023-07-24T11:43:00;6.10;;;4.37;;
7707;SDS011;3896;48.758;8.888;2023-07-24T11:45:27;8.63;;;5.10;;
7707;SDS011;3896;48.758;8.888;2023-07-24T11:47:52;5.70;;;4.40;;
7707;SDS011;3896;48.758;8.888;2023-07-24T11:50:19;7.37;;;5.00;;
7707;SDS011;3896;48.758;8.888;2023-07-24T11:52:46;6.50;;;4.53;;
7707;SDS011;3896;48.758;8.888;2023-07-24T11:55:14;7.00;;;4.87;;
7707;SDS011;3896;48.758;8.888;2023-07-24T11:57:42;7.17;;;4.77;;
7707;SDS011;3896;48.758;8.888;2023-07-24T12:00:20;6.07;;;4.37;;
7707;SDS011;3896;48.758;8.888;2023-07-24T12:02:47;5.13;;;4.20;;
7707;SDS011;3896;48.758;8.888;2023-07-24T12:05:13;4.97;;;3.57;;
7707;SDS011;3896;48.758;8.888;2023-07-24T12:07:39;6.07;;;4.07;;
7707;SDS011;3896;48.758;8.888;2023-07-24T12:10:07;6.57;;;4.50;;
7707;SDS011;3896;48.758;8.888;2023-07-24T12:12:36;5.87;;;4.20;;
7707;SDS011;3896;48.758;8.888;2023-07-24T12:15:07;5.27;;;4.50;;
7707;SDS011;3896;48.758;8.888;2023-07-24T12:17:34;5.57;;;4.33;;
7707;SDS011;3896;48.758;8.888;2023-07-24T12:20:00;6.70;;;3.97;;
7707;SDS011;3896;48.758;8.888;2023-07-24T12:22:27;7.63;;;5.10;;
7707;SDS011;3896;48.758;8.888;2023-07-24T12:24:53;5.83;;;4.10;;
7707;SDS011;3896;48.758;8.888;2023-07-24T12:27:18;7.37;;;4.70;;
7707;SDS011;3896;48.758;8.888;2023-07-24T12:29:44;4.80;;;3.83;;
7707;SDS011;3896;48.758;8.888;2023-07-24T12:32:09;8.90;;;4.27;;
7707;SDS011;3896;48.758;8.888;2023-07-24T12:34:35;6.47;;;4.00;;
7707;SDS011;3896;48.758;8.888;2023-07-24T12:37:00;5.23;;;3.50;;
7707;SDS011;3896;48.758;8.888;2023-07-24T12:39:26;6.67;;;4.27;;
7707;SDS011;3896;48.758;8.888;2023-07-24T12:41:51;6.57;;;3.90;;
7707;SDS011;3896;48.758;8.888;2023-07-24T12:44:17;3.93;;;3.43;;
7707;SDS011;3896;48.758;8.888;2023-07-24T12:46:42;5.17;;;3.90;;
7707;SDS011;3896;48.758;8.888;2023-07-24T12:49:08;4.57;;;4.13;;
7707;SDS011;3896;48.758;8.888;2023-07-24T12:51:33;6.63;;;4.67;;
7707;SDS011;3896;48.758;8.888;2023-07-24T12:53:59;5.47;;;4.57;;
7707;SDS011;3896;48.758;8.888;2023-07-24T12:56:25;6.57;;;4.13;;
7707;SDS011;3896;48.758;8.888;2023-07-24T12:58:50;6.70;;;4.67;;
7707;SDS011;3896;48.758;8.888;2023-07-24T13:01:16;4.97;;;3.80;;
7707;SDS011;3896;48.758;8.888;2023-07-24T13:03:41;5.70;;;4.27;;
7707;SDS011;3896;48.758;8.888;2023-07-24T13:06:07;6.00;;;4.57;;
7707;SDS011;3896;48.758;8.888;2023-07-24T13:08:32;4.90;;;4.10;;
7707;SDS011;3896;48.758;8.888;2023-07-24T13:10:58;5.67;;;3.90;;
7707;SDS011;3896;48.758;8.888;2023-07-24T13:13:23;6.07;;;4.50;;
7707;SDS011;3896;48.758;8.888;2023-07-24T13:15:49;4.73;;;3.70;;
7707;SDS011;3896;48.758;8.888;2023-07-24T13:18:16;5.43;;;4.07;;
7707;SDS011;3896;48.758;8.888;2023-07-24T13:20:42;5.03;;;3.43;;
7707;SDS011;3896;48.758;8.888;2023-07-24T13:23:07;5.60;;;4.13;;
7707;SDS011;3896;48.758;8.888;2023-07-24T13:25:33;5.17;;;3.67;;
7707;SDS011;3896;48.758;8.888;2023-07-24T13:27:59;5.03;;;3.77;;
7707;SDS011;3896;48.758;8.888;2023-07-24T13:30:24;5.33;;;4.03;;
7707;SDS011;3896;48.758;8.888;2023-07-24T13:32:50;6.77;;;3.90;;
7707;SDS011;3896;48.758;8.888;2023-07-24T13:35:15;5.03;;;3.83;;
7707;SDS011;3896;48.758;8.888;2023-07-24T13:37:41;4.60;;;3.83;;
7707;SDS011;3896;48.758;8.888;2023-07-24T13:40:07;4.67;;;3.87;;
7707;SDS011;3896;48.758;8.888;2023-07-24T13:42:33;5.70;;;4.33;;
7707;SDS011;3896;48.758;8.888;2023-07-24T13:44:59;5.20;;;3.73;;
7707;SDS011;3896;48.758;8.888;2023-07-24T13:47:24;5.73;;;4.30;;
7707;SDS011;3896;48.758;8.888;2023-07-24T13:49:50;5.07;;;4.03;;
7707;SDS011;3896;48.758;8.888;2023-07-24T13:52:15;5.93;;;3.87;;
7707;SDS011;3896;48.758;8.888;2023-07-24T13:54:41;4.90;;;3.67;;
7707;SDS011;3896;48.758;8.888;2023-07-24T13:57:06;4.87;;;3.73;;
7707;SDS011;3896;48.758;8.888;2023-07-24T13:59:33;3.47;;;3.10;;
7707;SDS011;3896;48.758;8.888;2023-07-24T14:02:05;4.13;;;3.47;;
7707;SDS011;3896;48.758;8.888;2023-07-24T14:04:31;4.60;;;3.57;;
7707;SDS011;3896;48.758;8.888;2023-07-24T14:06:57;5.50;;;4.23;;
7707;SDS011;3896;48.758;8.888;2023-07-24T14:09:22;4.73;;;3.80;;
7707;SDS011;3896;48.758;8.888;2023-07-24T14:11:48;4.10;;;3.53;;
7707;SDS011;3896;48.758;8.888;2023-07-24T14:14:15;5.27;;;3.70;;
7707;SDS011;3896;48.758;8.888;2023-07-24T14:16:42;4.10;;;3.50;;
7707;SDS011;3896;48.758;8.888;2023-07-24T14:19:08;4.57;;;4.03;;
7707;SDS011;3896;48.758;8.888;2023-07-24T14:21:33;3.90;;;3.50;;
7707;SDS011;3896;48.758;8.888;2023-07-24T14:23:59;3.63;;;3.23;;
7707;SDS011;3896;48.758;8.888;2023-07-24T14:26:24;3.60;;;3.23;;
7707;SDS011;3896;48.758;8.888;2023-07-24T14:28:50;4.47;;;3.08;;
7707;SDS011;3896;48.758;8.888;2023-07-24T14:31:16;5.38;;;3.58;;
7707;SDS011;3896;48.758;8.888;2023-07-24T14:33:41;4.40;;;2.95;;
7707;SDS011;3896;48.758;8.888;2023-07-24T14:36:07;4.78;;;3.58;;
7707;SDS011;3896;48.758;8.888;2023-07-24T14:38:32;4.32;;;3.45;;
7707;SDS011;3896;48.758;8.888;2023-07-24T14:40:58;3.70;;;2.85;;
7707;SDS011;3896;48.758;8.888;2023-07-24T14:43:23;3.55;;;3.20;;
7707;SDS011;3896;48.758;8.888;2023-07-24T14:45:49;3.33;;;2.60;;
7707;SDS011;3896;48.758;8.888;2023-07-24T14:48:14;4.95;;;3.45;;
7707;SDS011;3896;48.758;8.888;2023-07-24T14:50:41;4.75;;;3.10;;
7707;SDS011;3896;48.758;8.888;2023-07-24T14:53:07;3.92;;;3.05;;
7707;SDS011;3896;48.758;8.888;2023-07-24T14:55:32;9.77;;;3.67;;
7707;SDS011;3896;48.758;8.888;2023-07-24T14:57:58;3.40;;;3.00;;
7707;SDS011;3896;48.758;8.888;2023-07-24T15:00:23;4.60;;;3.33;;
7707;SDS011;3896;48.758;8.888;2023-07-24T15:02:49;4.82;;;3.42;;
7707;SDS011;3896;48.758;8.888;2023-07-24T15:05:14;3.03;;;2.72;;
7707;SDS011;3896;48.758;8.888;2023-07-24T15:07:40;4.25;;;2.90;;
7707;SDS011;3896;48.758;8.888;2023-07-24T15:10:06;3.78;;;2.75;;
7707;SDS011;3896;48.758;8.888;2023-07-24T15:12:31;4.68;;;2.92;;
7707;SDS011;3896;48.758;8.888;2023-07-24T15:14:57;3.20;;;2.90;;
7707;SDS011;3896;48.758;8.888;2023-07-24T15:17:23;3.20;;;2.80;;
7707;SDS011;3896;48.758;8.888;2023-07-24T15:19:48;3.58;;;3.17;;
7707;SDS011;3896;48.758;8.888;2023-07-24T15:22:14;3.08;;;2.50;;
7707;SDS011;3896;48.758;8.888;2023-07-24T15:24:40;2.83;;;2.60;;
7707;SDS011;3896;48.758;8.888;2023-07-24T15:27:06;4.43;;;3.13;;